createdAt,value
2018-08-09T00:01:44.549Z,67.70
2018-08-09T00:04:25.137Z,67.20
2018-08-09T00:07:05.707Z,66.80
2018-08-09T00:09:46.105Z,67.10
2018-08-09T00:12:26.559Z,67.10
2018-08-09T00:15:07.016Z,67.30
2018-08-09T00:17:48.531Z,67.10
2018-08-09T00:20:29.801Z,67.00
2018-08-09T00:23:10.353Z,67.00
2018-08-09T00:25:53.558Z,67.10
2018-08-09T00:28:37.081Z,67.60
2018-08-09T00:31:20.744Z,67.00
2018-08-09T00:34:01.164Z,66.90
2018-08-09T00:36:41.667Z,67.00
2018-08-09T00:39:25.499Z,67.50
2018-08-09T00:42:06.286Z,65.70
2018-08-09T00:44:48.878Z,66.00
2018-08-09T00:47:29.200Z,65.00
2018-08-09T00:50:10.812Z,65.00
2018-08-09T00:52:52.271Z,64.70
2018-08-09T00:55:32.599Z,64.40
2018-08-09T00:58:13.200Z,64.00
2018-08-09T01:00:53.641Z,64.00
2018-08-09T01:03:34.165Z,63.90
2018-08-09T01:06:14.720Z,64.20
2018-08-09T01:09:00.332Z,64.20
2018-08-09T01:11:40.809Z,63.60
2018-08-09T01:14:22.325Z,63.60
2018-08-09T01:17:03.040Z,63.70
2018-08-09T01:19:43.489Z,63.30
2018-08-09T01:22:24.166Z,63.30
2018-08-09T01:25:04.724Z,63.40
2018-08-09T01:27:45.635Z,63.20
2018-08-09T01:30:26.096Z,63.20
2018-08-09T01:33:06.712Z,63.20
2018-08-09T01:35:47.753Z,62.60
2018-08-09T01:38:28.324Z,62.20
2018-08-09T01:41:08.780Z,63.10
2018-08-09T01:44:02.925Z,62.10
2018-08-09T01:46:43.355Z,62.30
2018-08-09T01:49:23.853Z,62.40
2018-08-09T01:52:04.209Z,62.30
2018-08-09T01:54:44.737Z,62.50
2018-08-09T01:57:25.288Z,62.30
2018-08-09T02:00:06.615Z,61.90
2018-08-09T02:02:47.960Z,61.60
2018-08-09T02:05:28.464Z,61.50
2018-08-09T02:08:09.076Z,61.30
2018-08-09T02:10:52.385Z,61.20
2018-08-09T02:13:33.741Z,60.80
2018-08-09T02:16:14.091Z,60.50
2018-08-09T02:44:56.630Z,62.10
2018-08-09T02:47:37.060Z,61.90
2018-08-09T02:50:17.645Z,62.10
2018-08-09T02:52:58.216Z,62.00
2018-08-09T02:55:38.919Z,61.90
2018-08-09T02:58:21.324Z,62.10
2018-08-09T03:01:01.913Z,62.00
2018-08-09T03:03:42.483Z,62.10
2018-08-09T03:06:23.827Z,62.40
2018-08-09T03:09:06.407Z,62.80
2018-08-09T03:11:46.853Z,62.80
2018-08-09T03:14:27.344Z,62.80
2018-08-09T03:17:08.035Z,62.80
2018-08-09T03:19:49.968Z,62.60
2018-08-09T03:22:30.312Z,62.50
2018-08-09T03:25:10.876Z,62.70
2018-08-09T03:27:54.880Z,62.40
2018-08-09T03:30:35.504Z,62.50
2018-08-09T03:33:16.059Z,62.00
2018-08-09T03:35:56.424Z,62.00
2018-08-09T03:38:36.970Z,62.10
2018-08-09T03:41:17.507Z,61.60
2018-08-09T03:43:58.059Z,61.30
2018-08-09T03:46:38.796Z,61.30
2018-08-09T03:49:19.757Z,61.70
2018-08-09T03:52:00.288Z,61.60
2018-08-09T03:54:40.891Z,61.40
2018-08-09T03:57:23.980Z,61.30
2018-08-09T04:00:06.476Z,61.30
2018-08-09T04:02:47.039Z,61.40
2018-08-09T04:05:27.662Z,60.70
2018-08-09T04:08:08.316Z,61.20
2018-08-09T04:10:48.843Z,60.70
2018-08-09T04:13:29.506Z,61.00
2018-08-09T04:16:10.148Z,61.30
2018-08-09T04:18:53.623Z,61.40
2018-08-09T04:21:34.348Z,60.70
2018-08-09T04:24:14.887Z,60.40
2018-08-09T04:26:56.434Z,60.80
2018-08-09T04:29:37.000Z,61.00
2018-08-09T04:32:17.415Z,60.80
2018-08-09T04:34:57.940Z,60.30
2018-08-09T04:37:38.535Z,60.40
2018-08-09T04:40:20.392Z,60.60
2018-08-09T04:43:01.225Z,60.40
2018-08-09T04:45:41.807Z,60.40
2018-08-09T04:48:25.059Z,60.70
2018-08-09T04:51:05.691Z,60.40
2018-08-09T04:53:46.290Z,60.60
2018-08-09T04:56:26.772Z,60.40
2018-08-09T04:59:07.387Z,60.40
2018-08-09T05:01:48.264Z,60.40
2018-08-09T05:04:28.916Z,60.30
2018-08-09T05:07:09.515Z,60.50
2018-08-09T05:09:51.821Z,60.40
2018-08-09T05:12:32.408Z,60.40
2018-08-09T05:15:13.774Z,60.40
2018-08-09T05:17:55.313Z,60.40
2018-08-09T05:20:35.820Z,60.50
2018-08-09T05:23:17.643Z,60.50
2018-08-09T05:25:58.302Z,60.50
2018-08-09T05:28:38.828Z,60.60
2018-08-09T05:31:20.705Z,60.50
2018-08-09T05:34:32.006Z,60.70
2018-08-09T05:37:12.491Z,60.70
2018-08-09T05:39:54.563Z,60.70
2018-08-09T05:42:35.319Z,60.70
2018-08-09T05:45:15.827Z,60.70
2018-08-09T05:47:56.470Z,60.70
2018-08-09T05:50:37.088Z,60.70
2018-08-09T05:53:17.787Z,60.80
2018-08-09T05:55:58.243Z,60.80
2018-08-09T05:58:38.783Z,60.90
2018-08-09T06:01:20.679Z,62.10
2018-08-09T06:04:01.154Z,60.90
2018-08-09T06:06:41.711Z,60.90
2018-08-09T06:09:24.548Z,61.00
2018-08-09T06:12:05.070Z,61.00
2018-08-09T06:14:45.728Z,61.00
2018-08-09T06:17:26.377Z,61.00
2018-08-09T06:20:07.316Z,61.00
2018-08-09T06:22:47.777Z,61.00
2018-08-09T06:25:28.319Z,61.00
2018-08-09T06:28:08.712Z,61.00
2018-08-09T06:30:50.644Z,60.80
2018-08-09T06:33:31.265Z,61.00
2018-08-09T06:36:12.684Z,60.70
2018-08-09T06:38:57.100Z,60.80
2018-08-09T06:41:38.012Z,60.40
2018-08-09T06:44:19.047Z,60.40
2018-08-09T06:46:59.551Z,59.90
2018-08-09T06:49:40.123Z,59.80
2018-08-09T06:52:21.618Z,59.60
2018-08-09T06:55:02.338Z,59.40
2018-08-09T06:57:42.844Z,59.40
2018-08-09T07:00:28.216Z,59.50
2018-08-09T07:03:08.842Z,59.50
2018-08-09T07:05:50.643Z,59.40
2018-08-09T07:08:31.220Z,58.80
2018-08-09T07:11:11.795Z,59.90
2018-08-09T07:13:54.584Z,58.50
2018-08-09T07:16:35.032Z,57.30
2018-08-09T07:19:15.522Z,56.80
2018-08-09T07:21:56.348Z,56.50
2018-08-09T07:24:37.023Z,56.00
2018-08-09T07:27:17.510Z,55.90
2018-08-09T07:29:58.077Z,55.20
2018-08-09T07:32:38.689Z,55.00
2018-08-09T07:35:20.628Z,54.70
2018-08-09T07:38:01.165Z,53.80
2018-08-09T07:40:42.216Z,53.80
2018-08-09T07:43:24.662Z,53.40
2018-08-09T07:46:05.327Z,52.80
2018-08-09T07:48:45.886Z,51.70
2018-08-09T07:51:26.523Z,51.60
2018-08-09T07:54:13.630Z,52.00
2018-08-09T07:56:55.758Z,51.60
2018-08-09T07:59:36.364Z,51.70
2018-08-09T08:02:16.941Z,51.30
2018-08-09T08:04:57.479Z,50.70
2018-08-09T08:07:38.396Z,50.70
2018-08-09T08:10:20.619Z,50.60
2018-08-09T08:13:01.739Z,52.10
2018-08-09T08:15:43.287Z,51.20
2018-08-09T08:18:25.165Z,51.10
2018-08-09T08:21:05.713Z,51.00
2018-08-09T08:23:46.842Z,49.00
2018-08-09T08:26:27.200Z,49.20
2018-08-09T08:29:07.836Z,46.90
2018-08-09T08:31:48.478Z,46.00
2018-08-09T08:34:29.057Z,45.10
2018-08-09T08:37:09.674Z,46.20
2018-08-09T08:39:51.516Z,46.10
2018-08-09T08:42:32.030Z,46.50
2018-08-09T08:45:13.849Z,46.80
2018-08-09T08:47:55.728Z,46.20
2018-08-09T08:50:36.386Z,45.60
2018-08-09T08:53:16.942Z,45.80
2018-08-09T08:55:57.523Z,45.50
2018-08-09T08:58:38.087Z,45.30
2018-08-09T09:01:18.775Z,45.40
2018-08-09T09:03:59.151Z,45.60
2018-08-09T09:06:39.738Z,44.90
2018-08-09T09:09:21.551Z,45.40
2018-08-09T09:12:02.063Z,45.20
2018-08-09T09:14:42.420Z,44.70
2018-08-09T09:17:24.547Z,45.00
2018-08-09T09:20:08.848Z,45.20
2018-08-09T09:22:50.506Z,45.00
2018-08-09T09:25:31.115Z,44.70
2018-08-09T09:28:11.659Z,45.10
2018-08-09T09:30:55.061Z,45.50
2018-08-09T09:33:35.593Z,45.20
2018-08-09T09:36:16.148Z,43.70
2018-08-09T09:38:56.679Z,44.60
2018-08-09T09:41:37.308Z,45.20
2018-08-09T09:44:17.875Z,44.70
2018-08-09T09:46:58.479Z,44.30
2018-08-09T09:49:39.187Z,45.70
2018-08-09T09:52:20.660Z,44.70
2018-08-09T09:55:01.255Z,44.90
2018-08-09T09:57:41.785Z,45.10
2018-08-09T10:00:28.940Z,45.50
2018-08-09T10:03:09.531Z,45.10
2018-08-09T10:05:51.743Z,44.70
2018-08-09T10:08:32.817Z,44.30
2018-08-09T10:11:13.421Z,44.00
2018-08-09T10:13:55.896Z,43.40
2018-08-09T10:16:36.404Z,43.40
2018-08-09T10:19:16.907Z,43.60
2018-08-09T10:21:57.692Z,45.20
2018-08-09T10:24:38.212Z,44.70
2018-08-09T10:27:20.496Z,45.30
2018-08-09T10:30:01.128Z,44.20
2018-08-09T10:32:41.683Z,44.60
2018-08-09T10:35:24.467Z,44.10
2018-08-09T10:38:04.986Z,44.10
2018-08-09T10:40:45.531Z,44.40
2018-08-09T10:43:26.183Z,44.00
2018-08-09T10:46:06.801Z,44.80
2018-08-09T10:48:47.472Z,44.20
2018-08-09T10:51:27.864Z,43.80
2018-08-09T10:54:08.535Z,44.10
2018-08-09T10:56:50.519Z,43.80
2018-08-09T10:59:31.033Z,44.00
2018-08-09T11:02:11.614Z,44.40
2018-08-09T11:04:54.401Z,45.10
2018-08-09T11:07:35.001Z,45.00
2018-08-09T11:10:15.567Z,45.00
2018-08-09T11:12:56.181Z,45.60
2018-08-09T11:15:36.751Z,46.60
2018-08-09T11:18:17.323Z,45.00
2018-08-09T11:20:57.954Z,45.00
2018-08-09T11:23:38.562Z,44.90
2018-08-09T11:26:20.519Z,44.40
2018-08-09T11:29:00.944Z,44.60
2018-08-09T11:31:41.476Z,44.20
2018-08-09T11:34:24.515Z,43.50
2018-08-09T11:37:08.662Z,44.00
2018-08-09T11:39:50.766Z,43.60
2018-08-09T11:42:31.465Z,43.80
2018-08-09T11:45:11.998Z,43.70
2018-08-09T11:47:54.324Z,44.10
2018-08-09T11:50:34.908Z,43.60
2018-08-09T11:53:15.443Z,43.50
2018-08-09T11:55:56.348Z,42.90
2018-08-09T11:58:36.815Z,42.70
2018-08-09T12:01:17.352Z,42.40
2018-08-09T12:03:57.908Z,41.70
2018-08-09T12:06:38.483Z,42.60
2018-08-09T12:09:20.399Z,42.30
2018-08-09T12:12:00.950Z,42.80
2018-08-09T12:14:41.396Z,41.90
2018-08-09T12:17:24.409Z,42.00
2018-08-09T12:20:05.708Z,42.60
2018-08-09T12:22:46.273Z,42.40
2018-08-09T12:25:26.840Z,42.20
2018-08-09T12:28:07.571Z,41.70
2018-08-09T12:30:48.244Z,41.60
2018-08-09T12:33:30.477Z,41.10
2018-08-09T12:36:08.397Z,41.30
2018-08-09T12:38:53.424Z,41.30
2018-08-09T12:41:33.953Z,41.90
2018-08-09T12:44:14.560Z,42.40
2018-08-09T12:46:56.467Z,42.50
2018-08-09T12:49:37.124Z,42.90
2018-08-09T12:52:17.670Z,42.20
2018-08-09T12:54:58.251Z,42.30
2018-08-09T12:57:39.109Z,43.10
2018-08-09T13:00:20.287Z,42.20
2018-08-09T13:03:00.848Z,42.50
2018-08-09T13:05:41.254Z,42.90
2018-08-09T13:08:24.433Z,42.90
2018-08-09T13:11:05.023Z,43.20
2018-08-09T13:13:45.593Z,43.50
2018-08-09T13:16:26.199Z,43.60
2018-08-09T13:19:06.841Z,43.80
2018-08-09T13:21:47.410Z,43.80
2018-08-09T13:24:28.001Z,44.20
2018-08-09T13:27:08.747Z,44.10
2018-08-09T13:29:50.382Z,43.80
2018-08-09T13:32:30.984Z,43.90
2018-08-09T13:35:11.598Z,44.10
2018-08-09T13:37:54.248Z,43.70
2018-08-09T13:40:34.816Z,43.60
2018-08-09T13:43:15.985Z,43.00
2018-08-09T13:45:56.608Z,43.60
2018-08-09T13:48:37.247Z,43.80
2018-08-09T13:51:17.916Z,42.80
2018-08-09T13:53:58.354Z,42.30
2018-08-09T13:56:38.770Z,41.90
2018-08-09T13:59:20.395Z,42.20
2018-08-09T14:02:01.033Z,41.60
2018-08-09T14:04:41.628Z,41.30
2018-08-09T14:07:27.109Z,40.80
2018-08-09T14:10:08.812Z,40.20
2018-08-09T14:12:50.235Z,41.10
2018-08-09T14:15:30.839Z,41.30
2018-08-09T14:18:11.390Z,41.30
2018-08-09T14:20:55.061Z,42.00
2018-08-09T14:23:35.652Z,41.70
2018-08-09T14:26:16.201Z,41.30
2018-08-09T14:28:56.827Z,41.40
2018-08-09T14:31:37.647Z,40.90
2018-08-09T14:34:18.115Z,41.30
2018-08-09T14:36:58.675Z,40.50
2018-08-09T14:39:39.315Z,40.40
2018-08-09T14:42:21.495Z,41.30
2018-08-09T14:45:02.816Z,41.20
2018-08-09T14:47:43.261Z,40.70
2018-08-09T14:50:24.953Z,41.00
2018-08-09T14:53:05.435Z,41.60
2018-08-09T14:55:46.223Z,41.10
2018-08-09T14:58:26.880Z,41.60
2018-08-09T15:01:07.535Z,43.00
2018-08-09T15:03:48.290Z,41.80
2018-08-09T15:06:28.939Z,41.30
2018-08-09T15:09:11.467Z,41.20
2018-08-09T15:11:54.288Z,41.60
2018-08-09T15:14:35.093Z,42.00
2018-08-09T15:17:17.544Z,42.80
2018-08-09T15:20:00.376Z,42.10
2018-08-09T15:22:41.113Z,42.70
2018-08-09T15:25:25.411Z,43.00
2018-08-09T15:28:06.600Z,42.90
2018-08-09T15:30:47.330Z,42.90
2018-08-09T15:33:28.988Z,43.40
2018-08-09T15:36:09.669Z,43.00
2018-08-09T15:38:51.435Z,43.10
2018-08-09T15:41:32.056Z,43.40
2018-08-09T15:44:13.846Z,43.00
2018-08-09T15:46:56.232Z,42.50
2018-08-09T15:49:36.981Z,42.00
2018-08-09T15:52:17.588Z,41.90
2018-08-09T15:54:58.078Z,41.90
2018-08-09T15:57:39.260Z,42.90
2018-08-09T16:00:24.466Z,42.70
2018-08-09T16:03:06.345Z,42.00
2018-08-09T16:05:46.894Z,42.10
2018-08-09T16:08:27.531Z,43.20
2018-08-09T16:11:08.096Z,43.00
2018-08-09T16:13:53.740Z,43.50
2018-08-09T16:16:34.447Z,43.60
2018-08-09T16:19:14.983Z,43.60
2018-08-09T16:21:56.833Z,42.60
2018-08-09T16:24:38.958Z,42.70
2018-08-09T16:27:19.457Z,43.40
2018-08-09T16:30:00.788Z,44.10
2018-08-09T16:32:41.692Z,43.30
2018-08-09T16:35:24.276Z,43.80
2018-08-09T16:38:05.868Z,43.50
2018-08-09T16:40:46.537Z,43.80
2018-08-09T16:43:28.978Z,43.60
2018-08-09T16:46:09.661Z,43.80
2018-08-09T16:48:51.434Z,44.10
2018-08-09T16:51:31.936Z,44.50
2018-08-09T16:54:12.573Z,44.10
2018-08-09T16:56:55.352Z,44.00
2018-08-09T16:59:35.953Z,43.90
2018-08-09T17:02:17.653Z,44.10
2018-08-09T17:04:58.291Z,44.60
2018-08-09T17:07:41.787Z,44.60
2018-08-09T17:10:26.572Z,44.40
2018-08-09T17:13:07.302Z,44.20
2018-08-09T17:15:47.933Z,45.20
2018-08-09T17:18:28.351Z,45.20
2018-08-09T17:21:09.142Z,45.10
2018-08-09T17:23:51.300Z,45.70
2018-08-09T17:26:32.160Z,45.80
2018-08-09T17:29:12.672Z,45.50
2018-08-09T17:31:55.436Z,45.40
2018-08-09T17:34:36.185Z,45.00
2018-08-09T17:37:16.819Z,45.30
2018-08-09T17:39:57.242Z,45.20
2018-08-09T17:42:38.007Z,45.50
2018-08-09T17:45:19.915Z,45.40
2018-08-09T17:48:05.092Z,45.70
2018-08-09T17:50:45.511Z,46.30
2018-08-09T17:53:27.922Z,47.80
2018-08-09T17:56:09.298Z,47.70
2018-08-09T17:58:51.739Z,47.70
2018-08-09T18:01:32.533Z,48.00
2018-08-09T18:04:13.525Z,49.10
2018-08-09T18:06:59.316Z,49.30
2018-08-09T18:09:39.960Z,49.60
2018-08-09T18:12:21.644Z,50.10
2018-08-09T18:15:02.483Z,49.10
2018-08-09T18:17:42.914Z,49.40
2018-08-09T18:20:27.907Z,52.10
2018-08-09T18:23:08.851Z,49.70
2018-08-09T18:25:49.373Z,50.10
2018-08-09T18:28:30.020Z,49.30
2018-08-09T18:31:10.681Z,49.90
2018-08-09T18:33:51.980Z,49.40
2018-08-09T18:36:32.868Z,49.40
2018-08-09T18:39:13.707Z,49.40
2018-08-09T18:45:06.201Z,49.50
2018-08-09T18:47:46.769Z,50.80
2018-08-09T18:50:30.010Z,49.70
2018-08-09T18:53:10.758Z,50.10
2018-08-09T18:55:51.446Z,50.50
2018-08-09T18:58:32.113Z,51.60
2018-08-09T19:01:12.807Z,51.40
2018-08-09T19:03:54.528Z,51.50
2018-08-09T19:06:35.069Z,52.10
2018-08-09T19:09:15.825Z,52.30
2018-08-09T19:12:00.665Z,53.00
2018-08-09T19:14:42.013Z,52.80
2018-08-09T19:17:25.352Z,53.00
2018-08-09T19:20:12.544Z,53.00
2018-08-09T19:22:58.117Z,52.80
2018-08-09T19:25:39.896Z,53.00
2018-08-09T19:28:21.146Z,53.20
2018-08-09T19:31:01.884Z,53.50
2018-08-09T19:33:42.644Z,53.90
2018-08-09T19:36:24.793Z,54.10
2018-08-09T19:39:10.813Z,54.10
2018-08-09T19:41:51.632Z,54.10
2018-08-09T19:44:32.237Z,53.90
2018-08-09T19:47:12.924Z,53.90
2018-08-09T19:49:55.436Z,54.00
2018-08-09T19:52:36.088Z,54.40
2018-08-09T19:55:18.793Z,54.00
2018-08-09T19:58:00.976Z,54.40
2018-08-09T20:00:42.066Z,54.00
2018-08-09T20:03:22.752Z,53.90
2018-08-09T20:06:03.687Z,54.40
2018-08-09T20:08:44.439Z,54.20
2018-08-09T20:11:25.850Z,54.40
2018-08-09T20:14:06.723Z,54.50
2018-08-09T20:16:47.992Z,54.50
2018-08-09T20:19:30.547Z,54.70
2018-08-09T20:22:16.446Z,54.40
2018-08-09T20:24:59.261Z,54.40
2018-08-09T20:27:40.133Z,54.60
2018-08-09T20:30:20.779Z,53.70
2018-08-09T20:33:02.197Z,54.20
2018-08-09T20:35:42.807Z,53.20
2018-08-09T20:38:23.386Z,54.30
2018-08-09T20:41:07.234Z,55.00
2018-08-09T20:43:47.688Z,54.80
2018-08-09T20:46:30.202Z,54.90
2018-08-09T20:49:10.805Z,55.30
2018-08-09T20:51:51.432Z,55.50
2018-08-09T20:54:32.099Z,54.40
2018-08-09T20:57:12.850Z,54.10
2018-08-09T20:59:53.467Z,53.80
2018-08-09T21:02:34.604Z,54.10
2018-08-09T21:05:23.611Z,53.80
2018-08-09T21:08:04.484Z,54.10
2018-08-09T21:10:44.952Z,53.90
2018-08-09T21:13:26.591Z,54.00
2018-08-09T21:16:07.595Z,55.10
2018-08-09T21:18:48.230Z,54.30
2018-08-09T21:21:31.067Z,54.60
2018-08-09T21:24:11.733Z,54.10
2018-08-09T21:26:52.295Z,54.80
2018-08-09T21:29:32.910Z,54.40
2018-08-09T21:32:13.684Z,54.30
2018-08-09T21:34:54.359Z,54.50
2018-08-09T21:37:35.005Z,54.70
2018-08-09T21:40:16.005Z,54.80
2018-08-09T21:42:57.880Z,54.90
2018-08-09T21:45:38.424Z,54.90
2018-08-09T21:48:18.795Z,55.10
2018-08-09T21:51:00.467Z,55.10
2018-08-09T21:53:41.065Z,54.70
2018-08-09T21:56:21.640Z,54.70
2018-08-09T21:59:02.255Z,54.40
2018-08-09T22:01:42.845Z,54.70
2018-08-09T22:04:24.149Z,54.70
2018-08-09T22:07:10.246Z,54.60
2018-08-09T22:09:56.560Z,54.60
2018-08-09T22:12:42.171Z,54.30
2018-08-09T22:15:29.600Z,54.30
2018-08-09T22:18:15.237Z,53.90
2018-08-09T22:21:00.944Z,53.30
2018-08-09T22:23:41.666Z,53.50
2018-08-09T22:26:22.279Z,53.20
2018-08-09T22:29:02.828Z,53.00
2018-08-09T22:31:43.156Z,53.10
2018-08-09T22:34:23.685Z,53.00
2018-08-09T22:37:04.201Z,53.00
2018-08-09T22:39:45.394Z,53.00
2018-08-09T22:42:27.077Z,52.70
2018-08-09T22:45:07.756Z,53.00
2018-08-09T22:47:48.625Z,52.50
2018-08-09T22:50:30.911Z,52.60
2018-08-09T22:53:11.492Z,52.40
2018-08-09T22:55:52.072Z,52.50
2018-08-09T22:58:32.696Z,52.70
2018-08-09T23:01:13.285Z,52.70
2018-08-09T23:03:53.839Z,52.40
2018-08-09T23:06:34.364Z,52.50
2018-08-09T23:09:15.024Z,52.30
2018-08-09T23:11:56.227Z,52.30
2018-08-09T23:14:36.791Z,52.70
2018-08-09T23:17:17.206Z,52.80
2018-08-09T23:20:00.245Z,52.30
2018-08-09T23:22:40.775Z,52.60
2018-08-09T23:25:21.395Z,52.80
2018-08-09T23:28:03.704Z,52.60
2018-08-09T23:30:44.109Z,52.80
2018-08-09T23:33:26.236Z,52.80
2018-08-09T23:36:06.704Z,52.30
2018-08-09T23:38:47.284Z,52.50
2018-08-09T23:41:30.646Z,52.70
2018-08-09T23:44:11.228Z,52.70
2018-08-09T23:46:51.940Z,52.80
2018-08-09T23:49:32.503Z,52.50
2018-08-09T23:52:13.134Z,52.80
2018-08-09T23:54:53.624Z,52.30
2018-08-09T23:57:34.249Z,52.90
